sensor_id;sensor_type;location;lat;lon;timestamp;P1;durP1;ratioP1;P2;durP2;ratioP2
18689;SDS011;9782;52.930;15.562;2023-06-14T04:58:23;7.23;;;5.10;;
18689;SDS011;9782;52.930;15.562;2023-06-14T05:00:50;7.40;;;5.70;;
18689;SDS011;9782;52.930;15.562;2023-06-14T05:03:18;7.63;;;5.37;;
18689;SDS011;9782;52.930;15.562;2023-06-14T05:05:46;7.67;;;5.70;;
18689;SDS011;9782;52.930;15.562;2023-06-14T05:08:12;8.87;;;5.57;;
18689;SDS011;9782;52.930;15.562;2023-06-14T05:10:39;9.73;;;5.73;;
18689;SDS011;9782;52.930;15.562;2023-06-14T05:13:06;7.50;;;5.27;;
18689;SDS011;9782;52.930;15.562;2023-06-14T05:15:34;11.53;;;5.53;;
18689;SDS011;9782;52.930;15.562;2023-06-14T05:18:01;8.67;;;5.63;;
18689;SDS011;9782;52.930;15.562;2023-06-14T05:20:28;8.43;;;5.70;;
18689;SDS011;9782;52.930;15.562;2023-06-14T05:22:55;8.13;;;5.03;;
18689;SDS011;9782;52.930;15.562;2023-06-14T05:25:23;10.40;;;5.33;;
18689;SDS011;9782;52.930;15.562;2023-06-14T05:27:49;10.30;;;5.60;;
18689;SDS011;9782;52.930;15.562;2023-06-14T05:30:16;8.20;;;5.55;;
18689;SDS011;9782;52.930;15.562;2023-06-14T05:32:44;6.45;;;5.00;;
18689;SDS011;9782;52.930;15.562;2023-06-14T05:35:11;6.90;;;4.77;;
18689;SDS011;9782;52.930;15.562;2023-06-14T05:37:39;8.83;;;5.40;;
18689;SDS011;9782;52.930;15.562;2023-06-14T05:40:06;8.25;;;5.00;;
18689;SDS011;9782;52.930;15.562;2023-06-14T05:42:34;8.82;;;4.82;;
18689;SDS011;9782;52.930;15.562;2023-06-14T05:45:00;8.30;;;5.13;;
18689;SDS011;9782;52.930;15.562;2023-06-14T05:47:27;8.60;;;4.85;;
18689;SDS011;9782;52.930;15.562;2023-06-14T05:49:55;7.75;;;5.05;;
18689;SDS011;9782;52.930;15.562;2023-06-14T05:52:22;10.68;;;5.30;;
18689;SDS011;9782;52.930;15.562;2023-06-14T05:54:49;7.07;;;5.00;;
18689;SDS011;9782;52.930;15.562;2023-06-14T05:57:15;8.37;;;5.37;;
18689;SDS011;9782;52.930;15.562;2023-06-14T05:59:42;8.20;;;4.90;;
18689;SDS011;9782;52.930;15.562;2023-06-14T06:02:09;7.60;;;5.17;;
18689;SDS011;9782;52.930;15.562;2023-06-14T06:04:35;9.43;;;5.20;;
18689;SDS011;9782;52.930;15.562;2023-06-14T06:07:04;8.63;;;4.80;;
18689;SDS011;9782;52.930;15.562;2023-06-14T06:09:31;5.53;;;4.70;;
18689;SDS011;9782;52.930;15.562;2023-06-14T06:11:58;8.93;;;5.30;;
18689;SDS011;9782;52.930;15.562;2023-06-14T06:14:25;7.00;;;4.93;;
18689;SDS011;9782;52.930;15.562;2023-06-14T06:16:53;8.60;;;5.00;;
18689;SDS011;9782;52.930;15.562;2023-06-14T06:19:20;7.60;;;4.67;;
18689;SDS011;9782;52.930;15.562;2023-06-14T06:21:47;6.03;;;4.97;;
18689;SDS011;9782;52.930;15.562;2023-06-14T06:24:15;7.33;;;4.80;;
18689;SDS011;9782;52.930;15.562;2023-06-14T06:26:41;7.10;;;4.88;;
18689;SDS011;9782;52.930;15.562;2023-06-14T06:29:08;6.57;;;4.97;;
18689;SDS011;9782;52.930;15.562;2023-06-14T06:31:35;8.80;;;4.95;;
18689;SDS011;9782;52.930;15.562;2023-06-14T06:34:02;7.30;;;5.57;;
18689;SDS011;9782;52.930;15.562;2023-06-14T06:36:28;10.80;;;5.65;;
18689;SDS011;9782;52.930;15.562;2023-06-14T06:38:55;8.75;;;4.72;;
18689;SDS011;9782;52.930;15.562;2023-06-14T06:41:23;6.53;;;5.05;;
18689;SDS011;9782;52.930;15.562;2023-06-14T06:43:50;5.60;;;4.88;;
18689;SDS011;9782;52.930;15.562;2023-06-14T06:46:17;8.68;;;5.03;;
18689;SDS011;9782;52.930;15.562;2023-06-14T06:48:44;7.75;;;5.03;;
18689;SDS011;9782;52.930;15.562;2023-06-14T06:51:11;10.68;;;5.18;;
18689;SDS011;9782;52.930;15.562;2023-06-14T06:53:38;5.88;;;4.40;;
18689;SDS011;9782;52.930;15.562;2023-06-14T06:56:08;5.10;;;4.00;;
18689;SDS011;9782;52.930;15.562;2023-06-14T06:58:36;5.70;;;4.32;;
18689;SDS011;9782;52.930;15.562;2023-06-14T07:01:02;8.23;;;4.70;;
18689;SDS011;9782;52.930;15.562;2023-06-14T07:03:29;8.25;;;4.43;;
18689;SDS011;9782;52.930;15.562;2023-06-14T07:05:56;7.07;;;4.45;;
18689;SDS011;9782;52.930;15.562;2023-06-14T07:08:23;6.00;;;4.28;;
18689;SDS011;9782;52.930;15.562;2023-06-14T07:10:50;7.15;;;4.38;;
18689;SDS011;9782;52.930;15.562;2023-06-14T07:13:16;7.07;;;4.30;;
18689;SDS011;9782;52.930;15.562;2023-06-14T07:15:45;7.40;;;4.70;;
18689;SDS011;9782;52.930;15.562;2023-06-14T07:18:12;6.18;;;4.57;;
18689;SDS011;9782;52.930;15.562;2023-06-14T07:20:39;9.45;;;4.80;;
18689;SDS011;9782;52.930;15.562;2023-06-14T07:23:07;8.95;;;4.75;;
18689;SDS011;9782;52.930;15.562;2023-06-14T07:25:34;7.15;;;4.72;;
18689;SDS011;9782;52.930;15.562;2023-06-14T07:28:01;5.35;;;4.38;;
18689;SDS011;9782;52.930;15.562;2023-06-14T07:30:28;8.35;;;5.35;;
18689;SDS011;9782;52.930;15.562;2023-06-14T07:32:56;6.95;;;4.18;;
18689;SDS011;9782;52.930;15.562;2023-06-14T07:35:23;6.63;;;4.60;;
18689;SDS011;9782;52.930;15.562;2023-06-14T07:37:50;5.72;;;4.18;;
18689;SDS011;9782;52.930;15.562;2023-06-14T07:40:16;7.43;;;4.20;;
18689;SDS011;9782;52.930;15.562;2023-06-14T07:42:43;5.30;;;4.65;;
18689;SDS011;9782;52.930;15.562;2023-06-14T07:45:11;6.88;;;4.13;;
18689;SDS011;9782;52.930;15.562;2023-06-14T07:47:39;7.78;;;4.70;;
18689;SDS011;9782;52.930;15.562;2023-06-14T07:50:08;5.72;;;4.18;;
18689;SDS011;9782;52.930;15.562;2023-06-14T07:52:35;8.18;;;4.20;;
18689;SDS011;9782;52.930;15.562;2023-06-14T07:55:02;8.13;;;4.35;;
18689;SDS011;9782;52.930;15.562;2023-06-14T07:57:29;6.38;;;3.90;;
18689;SDS011;9782;52.930;15.562;2023-06-14T07:59:56;5.28;;;3.70;;
18689;SDS011;9782;52.930;15.562;2023-06-14T08:02:23;7.97;;;4.20;;
18689;SDS011;9782;52.930;15.562;2023-06-14T08:04:50;8.15;;;4.05;;
18689;SDS011;9782;52.930;15.562;2023-06-14T08:07:19;5.25;;;3.85;;
18689;SDS011;9782;52.930;15.562;2023-06-14T08:09:46;5.28;;;4.00;;
18689;SDS011;9782;52.930;15.562;2023-06-14T08:12:13;8.73;;;4.20;;
18689;SDS011;9782;52.930;15.562;2023-06-14T08:14:40;4.80;;;3.97;;
18689;SDS011;9782;52.930;15.562;2023-06-14T08:17:08;6.95;;;3.97;;
18689;SDS011;9782;52.930;15.562;2023-06-14T08:19:35;9.90;;;4.57;;
18689;SDS011;9782;52.930;15.562;2023-06-14T08:22:02;6.40;;;4.20;;
18689;SDS011;9782;52.930;15.562;2023-06-14T08:24:31;8.57;;;4.22;;
18689;SDS011;9782;52.930;15.562;2023-06-14T08:26:58;5.90;;;3.90;;
18689;SDS011;9782;52.930;15.562;2023-06-14T08:29:26;6.80;;;4.10;;
18689;SDS011;9782;52.930;15.562;2023-06-14T08:31:56;6.43;;;4.18;;
18689;SDS011;9782;52.930;15.562;2023-06-14T08:34:23;6.32;;;4.13;;
18689;SDS011;9782;52.930;15.562;2023-06-14T08:36:50;6.72;;;4.18;;
18689;SDS011;9782;52.930;15.562;2023-06-14T08:39:17;8.00;;;4.10;;
18689;SDS011;9782;52.930;15.562;2023-06-14T08:41:46;4.97;;;3.90;;
18689;SDS011;9782;52.930;15.562;2023-06-14T08:44:13;6.50;;;4.30;;
18689;SDS011;9782;52.930;15.562;2023-06-14T08:46:41;7.18;;;3.90;;
18689;SDS011;9782;52.930;15.562;2023-06-14T08:49:08;7.95;;;4.10;;
18689;SDS011;9782;52.930;15.562;2023-06-14T08:51:41;5.75;;;3.67;;
18689;SDS011;9782;52.930;15.562;2023-06-14T08:54:09;6.55;;;4.05;;
18689;SDS011;9782;52.930;15.562;2023-06-14T08:56:38;7.40;;;3.60;;
18689;SDS011;9782;52.930;15.562;2023-06-14T08:59:07;4.55;;;3.50;;
18689;SDS011;9782;52.930;15.562;2023-06-14T09:01:36;7.50;;;4.20;;
18689;SDS011;9782;52.930;15.562;2023-06-14T09:06:30;4.22;;;3.30;;
18689;SDS011;9782;52.930;15.562;2023-06-14T09:08:57;6.25;;;3.63;;
18689;SDS011;9782;52.930;15.562;2023-06-14T09:11:24;5.55;;;3.50;;
18689;SDS011;9782;52.930;15.562;2023-06-14T09:13:51;6.90;;;3.40;;
18689;SDS011;9782;52.930;15.562;2023-06-14T09:24:06;5.60;;;4.00;;
18689;SDS011;9782;52.930;15.562;2023-06-14T09:26:40;4.90;;;3.50;;
18689;SDS011;9782;52.930;15.562;2023-06-14T09:34:18;10.10;;;4.10;;
18689;SDS011;9782;52.930;15.562;2023-06-14T09:47:28;7.03;;;4.25;;
18689;SDS011;9782;52.930;15.562;2023-06-14T09:49:55;8.50;;;3.47;;
18689;SDS011;9782;52.930;15.562;2023-06-14T09:54:57;8.00;;;3.83;;
18689;SDS011;9782;52.930;15.562;2023-06-14T09:57:26;7.13;;;3.65;;
18689;SDS011;9782;52.930;15.562;2023-06-14T09:59:58;7.32;;;3.40;;
18689;SDS011;9782;52.930;15.562;2023-06-14T10:02:41;6.97;;;3.70;;
18689;SDS011;9782;52.930;15.562;2023-06-14T10:05:15;6.20;;;3.80;;
18689;SDS011;9782;52.930;15.562;2023-06-14T10:10:21;7.15;;;3.60;;
18689;SDS011;9782;52.930;15.562;2023-06-14T10:12:48;7.05;;;3.38;;
18689;SDS011;9782;52.930;15.562;2023-06-14T10:30:42;5.30;;;3.60;;
18689;SDS011;9782;52.930;15.562;2023-06-14T10:33:29;6.38;;;3.08;;
18689;SDS011;9782;52.930;15.562;2023-06-14T10:36:06;5.10;;;3.40;;
18689;SDS011;9782;52.930;15.562;2023-06-14T12:32:31;4.55;;;3.00;;
18689;SDS011;9782;52.930;15.562;2023-06-14T12:35:01;11.57;;;3.25;;
18689;SDS011;9782;52.930;15.562;2023-06-14T12:37:28;8.23;;;3.00;;
18689;SDS011;9782;52.930;15.562;2023-06-14T12:39:55;5.90;;;3.28;;
18689;SDS011;9782;52.930;15.562;2023-06-14T12:42:22;3.70;;;2.80;;
18689;SDS011;9782;52.930;15.562;2023-06-14T12:44:49;6.78;;;2.80;;
18689;SDS011;9782;52.930;15.562;2023-06-14T12:47:16;5.53;;;2.97;;
18689;SDS011;9782;52.930;15.562;2023-06-14T12:49:44;5.53;;;2.78;;
18689;SDS011;9782;52.930;15.562;2023-06-14T12:52:12;5.25;;;3.33;;
18689;SDS011;9782;52.930;15.562;2023-06-14T12:54:39;8.15;;;3.42;;
18689;SDS011;9782;52.930;15.562;2023-06-14T12:57:06;6.65;;;3.25;;
18689;SDS011;9782;52.930;15.562;2023-06-14T12:59:33;4.65;;;3.10;;
18689;SDS011;9782;52.930;15.562;2023-06-14T13:02:10;3.38;;;2.90;;
18689;SDS011;9782;52.930;15.562;2023-06-14T13:04:38;4.60;;;2.80;;
18689;SDS011;9782;52.930;15.562;2023-06-14T13:07:09;5.45;;;3.10;;
18689;SDS011;9782;52.930;15.562;2023-06-14T13:09:36;6.32;;;2.90;;
18689;SDS011;9782;52.930;15.562;2023-06-14T13:12:03;4.38;;;3.08;;
18689;SDS011;9782;52.930;15.562;2023-06-14T13:14:31;6.80;;;2.80;;
18689;SDS011;9782;52.930;15.562;2023-06-14T14:58:41;9.35;;;3.90;;
18689;SDS011;9782;52.930;15.562;2023-06-14T15:01:09;6.07;;;3.50;;
18689;SDS011;9782;52.930;15.562;2023-06-14T15:03:36;5.80;;;3.55;;
18689;SDS011;9782;52.930;15.562;2023-06-14T15:11:14;8.80;;;4.13;;
18689;SDS011;9782;52.930;15.562;2023-06-14T15:13:42;7.57;;;3.75;;
18689;SDS011;9782;52.930;15.562;2023-06-14T15:16:09;7.18;;;3.88;;
18689;SDS011;9782;52.930;15.562;2023-06-14T15:18:36;9.15;;;3.70;;
18689;SDS011;9782;52.930;15.562;2023-06-14T15:21:03;6.25;;;4.00;;
18689;SDS011;9782;52.930;15.562;2023-06-14T15:23:30;5.63;;;3.95;;
18689;SDS011;9782;52.930;15.562;2023-06-14T15:25:57;9.25;;;3.72;;
18689;SDS011;9782;52.930;15.562;2023-06-14T15:28:24;5.05;;;3.75;;
18689;SDS011;9782;52.930;15.562;2023-06-14T15:30:54;10.93;;;3.92;;
18689;SDS011;9782;52.930;15.562;2023-06-14T15:33:21;4.53;;;3.47;;
18689;SDS011;9782;52.930;15.562;2023-06-14T15:35:48;6.38;;;3.42;;
18689;SDS011;9782;52.930;15.562;2023-06-14T15:38:15;5.57;;;3.50;;
18689;SDS011;9782;52.930;15.562;2023-06-14T15:40:42;5.97;;;3.35;;
18689;SDS011;9782;52.930;15.562;2023-06-14T15:45:43;5.38;;;3.53;;
18689;SDS011;9782;52.930;15.562;2023-06-14T15:48:12;6.57;;;3.72;;
18689;SDS011;9782;52.930;15.562;2023-06-14T15:50:39;4.35;;;3.30;;
18689;SDS011;9782;52.930;15.562;2023-06-14T15:53:06;5.72;;;3.45;;
18689;SDS011;9782;52.930;15.562;2023-06-14T15:55:32;5.63;;;3.60;;
18689;SDS011;9782;52.930;15.562;2023-06-14T15:57:59;7.82;;;4.20;;
18689;SDS011;9782;52.930;15.562;2023-06-14T16:00:26;6.25;;;3.60;;
18689;SDS011;9782;52.930;15.562;2023-06-14T16:02:53;7.40;;;3.78;;
18689;SDS011;9782;52.930;15.562;2023-06-14T16:05:21;6.68;;;3.47;;
18689;SDS011;9782;52.930;15.562;2023-06-14T16:07:48;9.88;;;3.88;;
18689;SDS011;9782;52.930;15.562;2023-06-14T16:10:15;6.50;;;3.25;;
18689;SDS011;9782;52.930;15.562;2023-06-14T16:12:42;8.77;;;3.70;;
18689;SDS011;9782;52.930;15.562;2023-06-14T16:15:09;9.32;;;3.72;;
18689;SDS011;9782;52.930;15.562;2023-06-14T16:17:36;5.20;;;3.38;;
18689;SDS011;9782;52.930;15.562;2023-06-14T16:20:03;5.30;;;3.40;;
18689;SDS011;9782;52.930;15.562;2023-06-14T16:22:32;19.38;;;9.00;;
18689;SDS011;9782;52.930;15.562;2023-06-14T16:24:59;6.10;;;4.40;;
18689;SDS011;9782;52.930;15.562;2023-06-14T16:27:26;6.68;;;3.90;;
18689;SDS011;9782;52.930;15.562;2023-06-14T16:29:52;11.18;;;3.88;;
18689;SDS011;9782;52.930;15.562;2023-06-14T16:32:19;7.35;;;3.80;;
18689;SDS011;9782;52.930;15.562;2023-06-14T16:34:46;8.27;;;3.58;;
18689;SDS011;9782;52.930;15.562;2023-06-14T16:37:13;4.47;;;3.42;;
18689;SDS011;9782;52.930;15.562;2023-06-14T16:39:42;6.35;;;3.60;;
18689;SDS011;9782;52.930;15.562;2023-06-14T16:42:09;7.22;;;3.65;;
18689;SDS011;9782;52.930;15.562;2023-06-14T16:44:36;5.53;;;3.58;;
18689;SDS011;9782;52.930;15.562;2023-06-14T16:47:03;5.25;;;3.70;;
18689;SDS011;9782;52.930;15.562;2023-06-14T16:49:31;7.75;;;3.58;;
18689;SDS011;9782;52.930;15.562;2023-06-14T16:51:58;10.35;;;3.90;;
18689;SDS011;9782;52.930;15.562;2023-06-14T16:54:25;6.82;;;3.50;;
18689;SDS011;9782;52.930;15.562;2023-06-14T16:56:55;5.85;;;3.20;;
18689;SDS011;9782;52.930;15.562;2023-06-14T16:59:22;5.82;;;3.40;;
18689;SDS011;9782;52.930;15.562;2023-06-14T17:02:00;7.00;;;3.08;;
18689;SDS011;9782;52.930;15.562;2023-06-14T17:06:53;5.65;;;3.58;;
18689;SDS011;9782;52.930;15.562;2023-06-14T17:11:46;5.47;;;3.03;;
18689;SDS011;9782;52.930;15.562;2023-06-14T17:16:43;5.93;;;3.10;;
18689;SDS011;9782;52.930;15.562;2023-06-14T17:19:10;4.50;;;3.15;;
18689;SDS011;9782;52.930;15.562;2023-06-14T17:21:37;6.68;;;3.33;;
18689;SDS011;9782;52.930;15.562;2023-06-14T17:24:05;4.55;;;3.00;;
18689;SDS011;9782;52.930;15.562;2023-06-14T17:26:32;7.53;;;3.47;;
18689;SDS011;9782;52.930;15.562;2023-06-14T17:28:59;9.18;;;2.85;;
18689;SDS011;9782;52.930;15.562;2023-06-14T17:31:26;7.55;;;3.10;;
18689;SDS011;9782;52.930;15.562;2023-06-14T17:33:54;5.18;;;3.42;;
18689;SDS011;9782;52.930;15.562;2023-06-14T17:36:21;5.38;;;3.50;;
18689;SDS011;9782;52.930;15.562;2023-06-14T17:38:48;8.35;;;3.95;;
18689;SDS011;9782;52.930;15.562;2023-06-14T17:49:02;9.40;;;4.47;;
18689;SDS011;9782;52.930;15.562;2023-06-14T17:51:30;7.53;;;4.15;;
18689;SDS011;9782;52.930;15.562;2023-06-14T17:53:56;6.25;;;4.53;;
18689;SDS011;9782;52.930;15.562;2023-06-14T17:56:23;7.95;;;4.38;;
18689;SDS011;9782;52.930;15.562;2023-06-14T17:58:50;5.70;;;4.82;;
18689;SDS011;9782;52.930;15.562;2023-06-14T18:01:18;6.68;;;4.30;;
18689;SDS011;9782;52.930;15.562;2023-06-14T18:03:45;5.95;;;4.45;;
18689;SDS011;9782;52.930;15.562;2023-06-14T18:06:14;6.68;;;4.45;;
18689;SDS011;9782;52.930;15.562;2023-06-14T18:08:41;8.57;;;4.47;;
18689;SDS011;9782;52.930;15.562;2023-06-14T18:11:08;7.18;;;4.65;;
18689;SDS011;9782;52.930;15.562;2023-06-14T18:13:35;6.97;;;4.68;;
18689;SDS011;9782;52.930;15.562;2023-06-14T18:16:02;5.65;;;4.20;;
18689;SDS011;9782;52.930;15.562;2023-06-14T18:18:29;5.10;;;4.20;;
18689;SDS011;9782;52.930;15.562;2023-06-14T18:20:56;7.25;;;4.70;;
18689;SDS011;9782;52.930;15.562;2023-06-14T18:23:25;7.82;;;4.90;;
18689;SDS011;9782;52.930;15.562;2023-06-14T18:25:52;6.25;;;5.00;;
18689;SDS011;9782;52.930;15.562;2023-06-14T18:28:19;7.63;;;5.18;;
18689;SDS011;9782;52.930;15.562;2023-06-14T18:30:46;8.13;;;5.57;;
18689;SDS011;9782;52.930;15.562;2023-06-14T18:33:13;7.63;;;5.70;;
18689;SDS011;9782;52.930;15.562;2023-06-14T18:35:40;12.18;;;7.43;;
18689;SDS011;9782;52.930;15.562;2023-06-14T18:38:07;13.90;;;7.22;;
18689;SDS011;9782;52.930;15.562;2023-06-14T18:40:35;15.18;;;6.97;;
18689;SDS011;9782;52.930;15.562;2023-06-14T18:43:02;15.15;;;7.50;;
18689;SDS011;9782;52.930;15.562;2023-06-14T18:45:29;8.57;;;6.53;;
18689;SDS011;9782;52.930;15.562;2023-06-14T18:47:56;10.85;;;6.85;;
18689;SDS011;9782;52.930;15.562;2023-06-14T18:50:23;9.02;;;5.63;;
18689;SDS011;9782;52.930;15.562;2023-06-14T18:52:50;8.05;;;5.20;;
18689;SDS011;9782;52.930;15.562;2023-06-14T18:55:17;8.15;;;4.90;;
18689;SDS011;9782;52.930;15.562;2023-06-14T18:57:47;7.60;;;4.97;;
18689;SDS011;9782;52.930;15.562;2023-06-14T19:00:14;8.77;;;5.50;;
18689;SDS011;9782;52.930;15.562;2023-06-14T19:02:42;7.82;;;4.50;;
18689;SDS011;9782;52.930;15.562;2023-06-14T19:05:08;9.20;;;5.60;;
18689;SDS011;9782;52.930;15.562;2023-06-14T19:07:35;10.07;;;5.88;;
18689;SDS011;9782;52.930;15.562;2023-06-14T19:10:02;11.13;;;5.82;;
18689;SDS011;9782;52.930;15.562;2023-06-14T19:12:29;7.88;;;5.30;;
18689;SDS011;9782;52.930;15.562;2023-06-14T19:14:57;8.43;;;5.50;;
18689;SDS011;9782;52.930;15.562;2023-06-14T19:17:25;8.10;;;4.80;;
18689;SDS011;9782;52.930;15.562;2023-06-14T19:19:52;5.38;;;4.75;;
18689;SDS011;9782;52.930;15.562;2023-06-14T19:22:19;5.93;;;4.82;;
18689;SDS011;9782;52.930;15.562;2023-06-14T19:24:45;7.32;;;4.53;;
18689;SDS011;9782;52.930;15.562;2023-06-14T19:27:12;6.88;;;4.97;;
18689;SDS011;9782;52.930;15.562;2023-06-14T19:29:39;8.60;;;4.70;;
18689;SDS011;9782;52.930;15.562;2023-06-14T19:32:08;7.28;;;5.18;;
18689;SDS011;9782;52.930;15.562;2023-06-14T19:34:35;7.38;;;4.50;;
18689;SDS011;9782;52.930;15.562;2023-06-14T19:37:07;7.35;;;5.05;;
18689;SDS011;9782;52.930;15.562;2023-06-14T19:39:34;6.80;;;4.97;;
18689;SDS011;9782;52.930;15.562;2023-06-14T19:42:01;7.28;;;5.32;;
18689;SDS011;9782;52.930;15.562;2023-06-14T19:44:28;6.07;;;5.20;;
18689;SDS011;9782;52.930;15.562;2023-06-14T19:46:54;7.45;;;5.22;;
18689;SDS011;9782;52.930;15.562;2023-06-14T19:49:23;7.57;;;4.93;;
18689;SDS011;9782;52.930;15.562;2023-06-14T19:51:49;6.43;;;4.90;;
18689;SDS011;9782;52.930;15.562;2023-06-14T19:54:16;8.90;;;5.15;;
18689;SDS011;9782;52.930;15.562;2023-06-14T19:56:43;7.55;;;5.40;;
18689;SDS011;9782;52.930;15.562;2023-06-14T19:59:11;7.30;;;5.38;;
18689;SDS011;9782;52.930;15.562;2023-06-14T20:01:37;6.80;;;5.50;;
18689;SDS011;9782;52.930;15.562;2023-06-14T20:04:04;8.35;;;6.72;;
18689;SDS011;9782;52.930;15.562;2023-06-14T20:06:32;7.80;;;6.13;;
18689;SDS011;9782;52.930;15.562;2023-06-14T20:09:00;11.23;;;6.47;;
18689;SDS011;9782;52.930;15.562;2023-06-14T20:11:30;7.53;;;6.47;;
18689;SDS011;9782;52.930;15.562;2023-06-14T20:13:57;8.65;;;6.28;;
18689;SDS011;9782;52.930;15.562;2023-06-14T20:16:24;8.55;;;6.85;;
18689;SDS011;9782;52.930;15.562;2023-06-14T20:18:51;8.00;;;6.82;;
18689;SDS011;9782;52.930;15.562;2023-06-14T20:21:21;10.98;;;7.53;;
18689;SDS011;9782;52.930;15.562;2023-06-14T20:23:49;11.00;;;7.20;;
18689;SDS011;9782;52.930;15.562;2023-06-14T20:26:17;8.35;;;7.35;;
18689;SDS011;9782;52.930;15.562;2023-06-14T20:28:44;9.80;;;6.97;;
18689;SDS011;9782;52.930;15.562;2023-06-14T20:31:11;11.68;;;7.85;;
18689;SDS011;9782;52.930;15.562;2023-06-14T20:33:43;8.40;;;7.22;;
18689;SDS011;9782;52.930;15.562;2023-06-14T20:36:10;11.57;;;7.22;;
18689;SDS011;9782;52.930;15.562;2023-06-14T20:38:37;8.13;;;6.88;;
18689;SDS011;9782;52.930;15.562;2023-06-14T20:41:05;7.63;;;6.72;;
18689;SDS011;9782;52.930;15.562;2023-06-14T20:43:32;8.83;;;7.23;;
18689;SDS011;9782;52.930;15.562;2023-06-14T20:46:00;9.85;;;7.05;;
18689;SDS011;9782;52.930;15.562;2023-06-14T20:48:27;10.18;;;7.10;;
18689;SDS011;9782;52.930;15.562;2023-06-14T20:50:54;8.65;;;7.00;;
18689;SDS011;9782;52.930;15.562;2023-06-14T20:53:21;9.07;;;6.90;;
18689;SDS011;9782;52.930;15.562;2023-06-14T20:55:48;9.27;;;6.93;;
18689;SDS011;9782;52.930;15.562;2023-06-14T20:58:16;7.80;;;7.00;;
18689;SDS011;9782;52.930;15.562;2023-06-14T21:00:44;8.50;;;6.47;;
18689;SDS011;9782;52.930;15.562;2023-06-14T21:03:11;7.63;;;6.23;;
18689;SDS011;9782;52.930;15.562;2023-06-14T21:05:38;7.90;;;6.10;;
18689;SDS011;9782;52.930;15.562;2023-06-14T21:08:05;6.68;;;6.03;;
18689;SDS011;9782;52.930;15.562;2023-06-14T21:10:32;7.40;;;5.53;;
18689;SDS011;9782;52.930;15.562;2023-06-14T21:12:59;5.85;;;5.25;;
18689;SDS011;9782;52.930;15.562;2023-06-14T21:15:27;7.95;;;5.70;;
18689;SDS011;9782;52.930;15.562;2023-06-14T21:17:54;7.10;;;5.63;;
18689;SDS011;9782;52.930;15.562;2023-06-14T21:20:22;7.18;;;5.65;;
18689;SDS011;9782;52.930;15.562;2023-06-14T21:22:49;9.77;;;5.60;;
18689;SDS011;9782;52.930;15.562;2023-06-14T21:25:16;6.47;;;5.60;;
18689;SDS011;9782;52.930;15.562;2023-06-14T21:27:42;6.40;;;5.55;;
18689;SDS011;9782;52.930;15.562;2023-06-14T21:30:10;8.57;;;6.05;;
18689;SDS011;9782;52.930;15.562;2023-06-14T21:32:42;7.13;;;5.60;;
18689;SDS011;9782;52.930;15.562;2023-06-14T21:35:11;6.55;;;5.78;;
18689;SDS011;9782;52.930;15.562;2023-06-14T21:37:41;10.73;;;6.38;;
18689;SDS011;9782;52.930;15.562;2023-06-14T21:40:09;7.13;;;6.13;;
18689;SDS011;9782;52.930;15.562;2023-06-14T21:42:36;7.20;;;6.45;;
18689;SDS011;9782;52.930;15.562;2023-06-14T21:45:04;9.25;;;6.50;;
18689;SDS011;9782;52.930;15.562;2023-06-14T21:47:34;10.50;;;6.55;;
18689;SDS011;9782;52.930;15.562;2023-06-14T21:50:02;10.38;;;7.00;;
18689;SDS011;9782;52.930;15.562;2023-06-14T21:52:30;9.32;;;7.10;;
